sensor_id;sensor_type;location;lat;lon;timestamp;P1;durP1;ratioP1;P2;durP2;ratioP2
76433;SDS011;65265;53.200;6.080;2023-03-22T00:03:28;8.13;;;2.75;;
76433;SDS011;65265;53.200;6.080;2023-03-22T00:08:20;9.30;;;4.05;;
76433;SDS011;65265;53.200;6.080;2023-03-22T00:13:12;10.23;;;3.58;;
76433;SDS011;65265;53.200;6.080;2023-03-22T00:18:05;8.02;;;2.78;;
76433;SDS011;65265;53.200;6.080;2023-03-22T00:23:00;12.77;;;2.78;;
76433;SDS011;65265;53.200;6.080;2023-03-22T00:27:52;9.63;;;2.58;;
76433;SDS011;65265;53.200;6.080;2023-03-22T00:37:37;10.25;;;2.72;;
76433;SDS011;65265;53.200;6.080;2023-03-22T00:42:32;7.78;;;2.33;;
76433;SDS011;65265;53.200;6.080;2023-03-22T00:47:25;7.05;;;1.45;;
76433;SDS011;65265;53.200;6.080;2023-03-22T00:52:18;8.27;;;1.60;;
76433;SDS011;65265;53.200;6.080;2023-03-22T00:57:10;6.97;;;1.48;;
76433;SDS011;65265;53.200;6.080;2023-03-22T01:02:06;6.00;;;1.20;;
76433;SDS011;65265;53.200;6.080;2023-03-22T01:06:58;8.65;;;1.85;;
76433;SDS011;65265;53.200;6.080;2023-03-22T01:11:50;4.20;;;0.80;;
76433;SDS011;65265;53.200;6.080;2023-03-22T01:16:43;5.38;;;0.85;;
76433;SDS011;65265;53.200;6.080;2023-03-22T01:21:36;4.45;;;0.82;;
76433;SDS011;65265;53.200;6.080;2023-03-22T01:26:29;7.20;;;1.73;;
76433;SDS011;65265;53.200;6.080;2023-03-22T01:31:21;6.28;;;1.08;;
76433;SDS011;65265;53.200;6.080;2023-03-22T01:36:13;5.72;;;1.20;;
76433;SDS011;65265;53.200;6.080;2023-03-22T01:41:08;5.55;;;1.35;;
76433;SDS011;65265;53.200;6.080;2023-03-22T01:46:01;5.13;;;0.45;;
76433;SDS011;65265;53.200;6.080;2023-03-22T01:51:03;6.03;;;1.05;;
76433;SDS011;65265;53.200;6.080;2023-03-22T01:55:58;8.80;;;1.10;;
76433;SDS011;65265;53.200;6.080;2023-03-22T02:00:55;2.65;;;0.75;;
76433;SDS011;65265;53.200;6.080;2023-03-22T02:05:48;4.30;;;0.73;;
76433;SDS011;65265;53.200;6.080;2023-03-22T02:15:35;9.13;;;0.80;;
76433;SDS011;65265;53.200;6.080;2023-03-22T02:37:16;7.63;;;0.73;;
76433;SDS011;65265;53.200;6.080;2023-03-22T02:42:30;17.92;;;1.50;;
76433;SDS011;65265;53.200;6.080;2023-03-22T02:47:36;9.55;;;0.90;;
76433;SDS011;65265;53.200;6.080;2023-03-22T02:52:34;6.88;;;0.93;;
76433;SDS011;65265;53.200;6.080;2023-03-22T02:57:34;1.88;;;0.85;;
76433;SDS011;65265;53.200;6.080;2023-03-22T03:02:31;10.90;;;0.93;;
76433;SDS011;65265;53.200;6.080;2023-03-22T03:07:24;7.68;;;1.10;;
76433;SDS011;65265;53.200;6.080;2023-03-22T03:12:22;6.05;;;2.40;;
76433;SDS011;65265;53.200;6.080;2023-03-22T03:17:21;6.22;;;0.57;;
76433;SDS011;65265;53.200;6.080;2023-03-22T03:22:24;8.15;;;1.02;;
76433;SDS011;65265;53.200;6.080;2023-03-22T03:27:30;6.18;;;1.85;;
76433;SDS011;65265;53.200;6.080;2023-03-22T03:32:33;5.20;;;1.23;;
76433;SDS011;65265;53.200;6.080;2023-03-22T03:37:33;6.55;;;1.05;;
76433;SDS011;65265;53.200;6.080;2023-03-22T03:42:30;6.80;;;1.30;;
76433;SDS011;65265;53.200;6.080;2023-03-22T03:47:26;3.42;;;0.65;;
76433;SDS011;65265;53.200;6.080;2023-03-22T03:52:23;6.38;;;1.08;;
76433;SDS011;65265;53.200;6.080;2023-03-22T03:57:18;2.40;;;0.98;;
76433;SDS011;65265;53.200;6.080;2023-03-22T04:02:11;10.40;;;1.77;;
76433;SDS011;65265;53.200;6.080;2023-03-22T04:07:05;12.65;;;2.25;;
76433;SDS011;65265;53.200;6.080;2023-03-22T04:11:58;10.95;;;1.17;;
76433;SDS011;65265;53.200;6.080;2023-03-22T04:16:53;11.18;;;1.67;;
76433;SDS011;65265;53.200;6.080;2023-03-22T04:26:40;3.80;;;1.00;;
76433;SDS011;65265;53.200;6.080;2023-03-22T04:31:32;4.05;;;1.30;;
76433;SDS011;65265;53.200;6.080;2023-03-22T04:36:27;12.65;;;2.25;;
76433;SDS011;65265;53.200;6.080;2023-03-22T04:41:20;8.05;;;2.20;;
76433;SDS011;65265;53.200;6.080;2023-03-22T04:51:11;6.18;;;1.02;;
76433;SDS011;65265;53.200;6.080;2023-03-22T04:56:04;7.38;;;2.28;;
76433;SDS011;65265;53.200;6.080;2023-03-22T05:00:57;4.32;;;1.55;;
76433;SDS011;65265;53.200;6.080;2023-03-22T05:05:53;9.05;;;1.90;;
76433;SDS011;65265;53.200;6.080;2023-03-22T05:10:47;9.43;;;2.20;;
76433;SDS011;65265;53.200;6.080;2023-03-22T05:15:39;7.32;;;2.60;;
76433;SDS011;65265;53.200;6.080;2023-03-22T05:20:33;11.13;;;2.90;;
76433;SDS011;65265;53.200;6.080;2023-03-22T05:25:27;8.70;;;2.88;;
76433;SDS011;65265;53.200;6.080;2023-03-22T05:30:19;7.28;;;4.10;;
76433;SDS011;65265;53.200;6.080;2023-03-22T05:35:12;12.02;;;4.68;;
76433;SDS011;65265;53.200;6.080;2023-03-22T05:40:04;10.02;;;4.65;;
76433;SDS011;65265;53.200;6.080;2023-03-22T05:45:02;12.50;;;5.00;;
76433;SDS011;65265;53.200;6.080;2023-03-22T05:49:54;14.90;;;5.90;;
76433;SDS011;65265;53.200;6.080;2023-03-22T05:54:46;10.57;;;5.43;;
76433;SDS011;65265;53.200;6.080;2023-03-22T05:59:38;14.00;;;5.43;;
76433;SDS011;65265;53.200;6.080;2023-03-22T06:04:35;12.57;;;4.32;;
76433;SDS011;65265;53.200;6.080;2023-03-22T06:09:30;11.98;;;5.60;;
76433;SDS011;65265;53.200;6.080;2023-03-22T06:14:23;15.20;;;4.85;;
76433;SDS011;65265;53.200;6.080;2023-03-22T06:19:15;10.35;;;5.43;;
76433;SDS011;65265;53.200;6.080;2023-03-22T06:24:10;12.90;;;6.22;;
76433;SDS011;65265;53.200;6.080;2023-03-22T06:29:02;16.05;;;7.35;;
76433;SDS011;65265;53.200;6.080;2023-03-22T06:33:55;15.90;;;6.43;;
76433;SDS011;65265;53.200;6.080;2023-03-22T06:38:48;18.80;;;5.22;;
76433;SDS011;65265;53.200;6.080;2023-03-22T06:43:42;13.45;;;6.22;;
76433;SDS011;65265;53.200;6.080;2023-03-22T06:48:36;11.07;;;6.22;;
76433;SDS011;65265;53.200;6.080;2023-03-22T06:53:28;15.30;;;5.97;;
76433;SDS011;65265;53.200;6.080;2023-03-22T06:58:20;16.90;;;6.28;;
76433;SDS011;65265;53.200;6.080;2023-03-22T07:03:14;16.83;;;8.63;;
76433;SDS011;65265;53.200;6.080;2023-03-22T07:08:06;14.10;;;6.68;;
76433;SDS011;65265;53.200;6.080;2023-03-22T07:12:58;16.13;;;6.53;;
76433;SDS011;65265;53.200;6.080;2023-03-22T07:17:52;15.75;;;6.68;;
76433;SDS011;65265;53.200;6.080;2023-03-22T07:22:46;14.43;;;6.63;;
76433;SDS011;65265;53.200;6.080;2023-03-22T07:27:42;15.80;;;5.82;;
76433;SDS011;65265;53.200;6.080;2023-03-22T07:32:37;16.77;;;6.15;;
76433;SDS011;65265;53.200;6.080;2023-03-22T07:37:29;17.92;;;6.60;;
76433;SDS011;65265;53.200;6.080;2023-03-22T07:42:25;12.93;;;5.88;;
76433;SDS011;65265;53.200;6.080;2023-03-22T07:47:18;12.60;;;4.90;;
76433;SDS011;65265;53.200;6.080;2023-03-22T07:52:11;10.48;;;4.28;;
76433;SDS011;65265;53.200;6.080;2023-03-22T07:57:03;9.80;;;4.18;;
76433;SDS011;65265;53.200;6.080;2023-03-22T08:01:57;13.25;;;4.43;;
76433;SDS011;65265;53.200;6.080;2023-03-22T08:06:50;9.00;;;3.70;;
76433;SDS011;65265;53.200;6.080;2023-03-22T08:11:44;10.57;;;4.55;;
76433;SDS011;65265;53.200;6.080;2023-03-22T08:16:35;10.05;;;3.92;;
76433;SDS011;65265;53.200;6.080;2023-03-22T08:21:34;10.32;;;3.45;;
76433;SDS011;65265;53.200;6.080;2023-03-22T08:26:26;12.75;;;3.42;;
76433;SDS011;65265;53.200;6.080;2023-03-22T08:31:19;12.07;;;3.70;;
76433;SDS011;65265;53.200;6.080;2023-03-22T08:36:13;7.82;;;3.30;;
76433;SDS011;65265;53.200;6.080;2023-03-22T08:41:11;7.50;;;3.67;;
76433;SDS011;65265;53.200;6.080;2023-03-22T08:46:05;9.45;;;3.10;;
76433;SDS011;65265;53.200;6.080;2023-03-22T08:50:58;9.23;;;3.47;;
76433;SDS011;65265;53.200;6.080;2023-03-22T08:55:51;8.57;;;3.60;;
76433;SDS011;65265;53.200;6.080;2023-03-22T09:00:49;12.45;;;3.63;;
76433;SDS011;65265;53.200;6.080;2023-03-22T09:05:42;11.30;;;3.85;;
76433;SDS011;65265;53.200;6.080;2023-03-22T09:10:37;7.72;;;3.00;;
76433;SDS011;65265;53.200;6.080;2023-03-22T09:15:29;8.35;;;2.72;;
76433;SDS011;65265;53.200;6.080;2023-03-22T09:20:25;9.27;;;3.30;;
76433;SDS011;65265;53.200;6.080;2023-03-22T09:25:17;12.05;;;3.97;;
76433;SDS011;65265;53.200;6.080;2023-03-22T09:30:10;11.93;;;2.80;;
76433;SDS011;65265;53.200;6.080;2023-03-22T09:35:03;14.00;;;3.53;;
76433;SDS011;65265;53.200;6.080;2023-03-22T09:39:57;13.70;;;2.42;;
76433;SDS011;65265;53.200;6.080;2023-03-22T09:44:49;8.07;;;2.03;;
76433;SDS011;65265;53.200;6.080;2023-03-22T09:49:44;6.97;;;2.45;;
76433;SDS011;65265;53.200;6.080;2023-03-22T09:54:43;8.57;;;2.38;;
76433;SDS011;65265;53.200;6.080;2023-03-22T09:59:39;10.45;;;2.45;;
76433;SDS011;65265;53.200;6.080;2023-03-22T10:04:44;7.40;;;2.08;;
76433;SDS011;65265;53.200;6.080;2023-03-22T10:09:48;4.97;;;2.83;;
76433;SDS011;65265;53.200;6.080;2023-03-22T10:14:48;10.13;;;3.00;;
76433;SDS011;65265;53.200;6.080;2023-03-22T10:19:48;10.70;;;2.75;;
76433;SDS011;65265;53.200;6.080;2023-03-22T10:24:42;7.63;;;2.50;;
76433;SDS011;65265;53.200;6.080;2023-03-22T10:29:38;4.32;;;2.35;;
76433;SDS011;65265;53.200;6.080;2023-03-22T10:34:34;7.22;;;2.17;;
76433;SDS011;65265;53.200;6.080;2023-03-22T10:39:27;9.80;;;1.70;;
76433;SDS011;65265;53.200;6.080;2023-03-22T10:44:22;13.80;;;2.50;;
76433;SDS011;65265;53.200;6.080;2023-03-22T10:49:20;10.70;;;2.30;;
76433;SDS011;65265;53.200;6.080;2023-03-22T10:54:18;5.68;;;1.92;;
76433;SDS011;65265;53.200;6.080;2023-03-22T11:04:46;12.95;;;2.47;;
76433;SDS011;65265;53.200;6.080;2023-03-22T11:09:40;3.72;;;2.25;;
76433;SDS011;65265;53.200;6.080;2023-03-22T11:14:34;4.68;;;1.83;;
76433;SDS011;65265;53.200;6.080;2023-03-22T11:19:30;5.88;;;2.13;;
76433;SDS011;65265;53.200;6.080;2023-03-22T11:24:24;7.72;;;2.17;;
76433;SDS011;65265;53.200;6.080;2023-03-22T11:29:20;5.72;;;1.83;;
76433;SDS011;65265;53.200;6.080;2023-03-22T11:34:14;7.40;;;2.38;;
76433;SDS011;65265;53.200;6.080;2023-03-22T11:39:10;6.25;;;1.58;;
76433;SDS011;65265;53.200;6.080;2023-03-22T11:44:03;8.60;;;1.85;;
76433;SDS011;65265;53.200;6.080;2023-03-22T11:48:59;7.70;;;2.22;;
76433;SDS011;65265;53.200;6.080;2023-03-22T11:53:57;5.57;;;2.42;;
76433;SDS011;65265;53.200;6.080;2023-03-22T11:58:57;6.85;;;2.38;;
76433;SDS011;65265;53.200;6.080;2023-03-22T12:03:56;4.88;;;1.80;;
76433;SDS011;65265;53.200;6.080;2023-03-22T12:08:54;5.05;;;2.35;;
76433;SDS011;65265;53.200;6.080;2023-03-22T12:13:50;5.95;;;2.45;;
76433;SDS011;65265;53.200;6.080;2023-03-22T12:18:46;6.47;;;2.47;;
76433;SDS011;65265;53.200;6.080;2023-03-22T12:23:43;10.88;;;3.00;;
76433;SDS011;65265;53.200;6.080;2023-03-22T12:28:39;9.63;;;3.22;;
76433;SDS011;65265;53.200;6.080;2023-03-22T12:33:37;7.97;;;2.70;;
76433;SDS011;65265;53.200;6.080;2023-03-22T12:38:36;6.90;;;2.13;;
76433;SDS011;65265;53.200;6.080;2023-03-22T12:43:41;10.23;;;2.83;;
76433;SDS011;65265;53.200;6.080;2023-03-22T12:48:40;9.90;;;3.20;;
76433;SDS011;65265;53.200;6.080;2023-03-22T12:53:36;6.28;;;2.60;;
76433;SDS011;65265;53.200;6.080;2023-03-22T12:58:33;6.18;;;3.42;;
76433;SDS011;65265;53.200;6.080;2023-03-22T13:03:37;6.95;;;4.13;;
76433;SDS011;65265;53.200;6.080;2023-03-22T13:14:11;6.72;;;3.92;;
76433;SDS011;65265;53.200;6.080;2023-03-22T13:19:27;12.45;;;4.75;;
76433;SDS011;65265;53.200;6.080;2023-03-22T13:24:23;12.30;;;4.18;;
76433;SDS011;65265;53.200;6.080;2023-03-22T13:29:17;8.40;;;4.22;;
76433;SDS011;65265;53.200;6.080;2023-03-22T13:34:15;6.15;;;4.20;;
76433;SDS011;65265;53.200;6.080;2023-03-22T13:39:14;7.85;;;4.43;;
76433;SDS011;65265;53.200;6.080;2023-03-22T13:44:18;10.18;;;5.10;;
76433;SDS011;65265;53.200;6.080;2023-03-22T13:49:23;9.50;;;5.25;;
76433;SDS011;65265;53.200;6.080;2023-03-22T13:54:35;12.95;;;6.50;;
76433;SDS011;65265;53.200;6.080;2023-03-22T13:59:56;15.13;;;6.25;;
76433;SDS011;65265;53.200;6.080;2023-03-22T14:04:51;11.32;;;5.07;;
76433;SDS011;65265;53.200;6.080;2023-03-22T14:09:49;11.43;;;6.38;;
76433;SDS011;65265;53.200;6.080;2023-03-22T14:14:46;11.50;;;6.60;;
76433;SDS011;65265;53.200;6.080;2023-03-22T14:19:43;9.27;;;4.85;;
76433;SDS011;65265;53.200;6.080;2023-03-22T14:24:36;8.60;;;5.68;;
76433;SDS011;65265;53.200;6.080;2023-03-22T14:29:40;9.07;;;5.95;;
76433;SDS011;65265;53.200;6.080;2023-03-22T14:39:28;10.40;;;5.72;;
76433;SDS011;65265;53.200;6.080;2023-03-22T14:44:24;10.05;;;4.75;;
76433;SDS011;65265;53.200;6.080;2023-03-22T14:49:18;12.90;;;5.72;;
76433;SDS011;65265;53.200;6.080;2023-03-22T14:54:14;11.73;;;5.68;;
76433;SDS011;65265;53.200;6.080;2023-03-22T14:59:10;9.75;;;5.50;;
76433;SDS011;65265;53.200;6.080;2023-03-22T15:04:05;12.45;;;5.95;;
76433;SDS011;65265;53.200;6.080;2023-03-22T15:09:07;10.90;;;6.95;;
76433;SDS011;65265;53.200;6.080;2023-03-22T15:14:00;12.25;;;7.40;;
76433;SDS011;65265;53.200;6.080;2023-03-22T15:18:52;10.50;;;6.22;;
76433;SDS011;65265;53.200;6.080;2023-03-22T15:23:47;11.18;;;6.47;;
76433;SDS011;65265;53.200;6.080;2023-03-22T15:28:43;10.05;;;6.03;;
76433;SDS011;65265;53.200;6.080;2023-03-22T15:33:41;10.45;;;5.70;;
76433;SDS011;65265;53.200;6.080;2023-03-22T15:38:34;12.55;;;6.78;;
76433;SDS011;65265;53.200;6.080;2023-03-22T15:43:31;13.10;;;7.32;;
76433;SDS011;65265;53.200;6.080;2023-03-22T15:48:28;10.85;;;6.60;;
76433;SDS011;65265;53.200;6.080;2023-03-22T15:53:26;16.60;;;7.65;;
76433;SDS011;65265;53.200;6.080;2023-03-22T15:58:23;16.70;;;7.60;;
76433;SDS011;65265;53.200;6.080;2023-03-22T16:03:18;17.70;;;7.15;;
76433;SDS011;65265;53.200;6.080;2023-03-22T16:08:13;11.60;;;6.88;;
76433;SDS011;65265;53.200;6.080;2023-03-22T16:13:08;18.67;;;8.18;;
76433;SDS011;65265;53.200;6.080;2023-03-22T16:18:07;10.18;;;6.25;;
76433;SDS011;65265;53.200;6.080;2023-03-22T16:23:05;15.80;;;6.45;;
76433;SDS011;65265;53.200;6.080;2023-03-22T16:28:04;17.13;;;6.93;;
76433;SDS011;65265;53.200;6.080;2023-03-22T16:32:56;17.65;;;8.15;;
76433;SDS011;65265;53.200;6.080;2023-03-22T16:37:49;12.65;;;8.77;;
76433;SDS011;65265;53.200;6.080;2023-03-22T16:42:43;14.00;;;7.55;;
76433;SDS011;65265;53.200;6.080;2023-03-22T16:47:37;12.27;;;6.57;;
76433;SDS011;65265;53.200;6.080;2023-03-22T16:52:30;10.82;;;7.32;;
76433;SDS011;65265;53.200;6.080;2023-03-22T16:57:23;10.43;;;7.70;;
76433;SDS011;65265;53.200;6.080;2023-03-22T17:02:18;13.32;;;7.10;;
76433;SDS011;65265;53.200;6.080;2023-03-22T17:07:15;11.57;;;6.95;;
76433;SDS011;65265;53.200;6.080;2023-03-22T17:12:13;14.57;;;8.05;;
76433;SDS011;65265;53.200;6.080;2023-03-22T17:17:08;12.10;;;7.63;;
76433;SDS011;65265;53.200;6.080;2023-03-22T17:22:01;14.23;;;8.55;;
76433;SDS011;65265;53.200;6.080;2023-03-22T17:26:55;12.88;;;8.43;;
76433;SDS011;65265;53.200;6.080;2023-03-22T17:31:47;14.20;;;8.15;;
76433;SDS011;65265;53.200;6.080;2023-03-22T17:36:39;15.55;;;10.18;;
76433;SDS011;65265;53.200;6.080;2023-03-22T17:41:31;18.13;;;9.43;;
76433;SDS011;65265;53.200;6.080;2023-03-22T17:46:25;17.90;;;11.20;;
76433;SDS011;65265;53.200;6.080;2023-03-22T17:51:18;18.33;;;10.32;;
76433;SDS011;65265;53.200;6.080;2023-03-22T17:56:10;17.02;;;10.27;;
76433;SDS011;65265;53.200;6.080;2023-03-22T18:01:02;19.10;;;9.65;;
76433;SDS011;65265;53.200;6.080;2023-03-22T18:05:56;17.60;;;8.32;;
76433;SDS011;65265;53.200;6.080;2023-03-22T18:10:48;15.65;;;8.55;;
76433;SDS011;65265;53.200;6.080;2023-03-22T18:20:34;22.65;;;10.77;;
76433;SDS011;65265;53.200;6.080;2023-03-22T18:25:28;17.23;;;9.38;;
76433;SDS011;65265;53.200;6.080;2023-03-22T18:30:23;14.25;;;8.25;;
76433;SDS011;65265;53.200;6.080;2023-03-22T18:35:16;15.50;;;9.50;;
76433;SDS011;65265;53.200;6.080;2023-03-22T18:40:09;15.32;;;9.40;;
76433;SDS011;65265;53.200;6.080;2023-03-22T18:45:07;14.52;;;9.05;;
76433;SDS011;65265;53.200;6.080;2023-03-22T18:50:03;15.07;;;9.60;;
76433;SDS011;65265;53.200;6.080;2023-03-22T18:54:56;14.23;;;8.57;;
76433;SDS011;65265;53.200;6.080;2023-03-22T18:59:48;13.82;;;8.90;;
76433;SDS011;65265;53.200;6.080;2023-03-22T19:04:41;15.40;;;9.50;;
76433;SDS011;65265;53.200;6.080;2023-03-22T19:09:34;18.70;;;8.73;;
76433;SDS011;65265;53.200;6.080;2023-03-22T19:14:26;14.18;;;8.05;;
76433;SDS011;65265;53.200;6.080;2023-03-22T19:19:20;19.80;;;9.68;;
76433;SDS011;65265;53.200;6.080;2023-03-22T19:24:13;13.82;;;9.25;;
76433;SDS011;65265;53.200;6.080;2023-03-22T19:29:06;16.17;;;8.32;;
76433;SDS011;65265;53.200;6.080;2023-03-22T19:33:58;14.00;;;7.95;;
76433;SDS011;65265;53.200;6.080;2023-03-22T19:38:53;13.82;;;9.25;;
76433;SDS011;65265;53.200;6.080;2023-03-22T19:43:48;16.63;;;9.05;;
76433;SDS011;65265;53.200;6.080;2023-03-22T19:48:40;16.08;;;9.52;;
76433;SDS011;65265;53.200;6.080;2023-03-22T19:53:33;15.25;;;9.48;;
76433;SDS011;65265;53.200;6.080;2023-03-22T19:58:28;18.45;;;9.23;;
76433;SDS011;65265;53.200;6.080;2023-03-22T20:03:22;13.65;;;8.82;;
76433;SDS011;65265;53.200;6.080;2023-03-22T20:08:15;14.38;;;9.48;;
76433;SDS011;65265;53.200;6.080;2023-03-22T20:13:07;15.38;;;9.70;;
76433;SDS011;65265;53.200;6.080;2023-03-22T20:18:00;18.58;;;10.27;;
76433;SDS011;65265;53.200;6.080;2023-03-22T20:22:55;16.55;;;9.77;;
76433;SDS011;65265;53.200;6.080;2023-03-22T20:27:47;17.75;;;9.00;;
76433;SDS011;65265;53.200;6.080;2023-03-22T20:32:41;16.98;;;10.57;;
76433;SDS011;65265;53.200;6.080;2023-03-22T20:37:34;16.08;;;10.43;;
76433;SDS011;65265;53.200;6.080;2023-03-22T20:42:28;17.60;;;10.38;;
76433;SDS011;65265;53.200;6.080;2023-03-22T20:47:20;19.55;;;12.07;;
76433;SDS011;65265;53.200;6.080;2023-03-22T20:52:12;18.63;;;10.55;;
76433;SDS011;65265;53.200;6.080;2023-03-22T20:57:05;16.92;;;9.88;;
76433;SDS011;65265;53.200;6.080;2023-03-22T21:02:00;18.63;;;11.02;;
76433;SDS011;65265;53.200;6.080;2023-03-22T21:06:52;17.55;;;9.43;;
76433;SDS011;65265;53.200;6.080;2023-03-22T21:11:46;18.63;;;10.48;;
76433;SDS011;65265;53.200;6.080;2023-03-22T21:16:38;18.42;;;10.73;;
76433;SDS011;65265;53.200;6.080;2023-03-22T21:21:35;20.25;;;12.82;;
76433;SDS011;65265;53.200;6.080;2023-03-22T21:26:28;21.67;;;12.30;;
76433;SDS011;65265;53.200;6.080;2023-03-22T21:31:21;24.85;;;13.10;;
76433;SDS011;65265;53.200;6.080;2023-03-22T21:36:15;23.13;;;13.48;;
76433;SDS011;65265;53.200;6.080;2023-03-22T21:41:11;19.65;;;11.45;;
76433;SDS011;65265;53.200;6.080;2023-03-22T21:46:04;11.75;;;6.85;;
76433;SDS011;65265;53.200;6.080;2023-03-22T21:50:59;9.30;;;5.90;;
76433;SDS011;65265;53.200;6.080;2023-03-22T21:55:53;8.98;;;6.20;;
76433;SDS011;65265;53.200;6.080;2023-03-22T22:00:48;14.30;;;8.50;;
76433;SDS011;65265;53.200;6.080;2023-03-22T22:05:46;18.77;;;10.15;;
76433;SDS011;65265;53.200;6.080;2023-03-22T22:10:38;21.10;;;11.20;;
76433;SDS011;65265;53.200;6.080;2023-03-22T22:15:31;19.92;;;11.43;;
76433;SDS011;65265;53.200;6.080;2023-03-22T22:20:26;21.58;;;11.25;;
76433;SDS011;65265;53.200;6.080;2023-03-22T22:25:19;22.27;;;12.10;;
76433;SDS011;65265;53.200;6.080;2023-03-22T22:30:13;22.25;;;13.45;;
76433;SDS011;65265;53.200;6.080;2023-03-22T22:35:07;19.98;;;11.70;;
76433;SDS011;65265;53.200;6.080;2023-03-22T22:40:03;15.52;;;9.40;;
76433;SDS011;65265;53.200;6.080;2023-03-22T22:44:59;15.23;;;7.57;;
76433;SDS011;65265;53.200;6.080;2023-03-22T22:49:51;6.35;;;3.80;;
76433;SDS011;65265;53.200;6.080;2023-03-22T22:54:43;9.13;;;3.85;;
76433;SDS011;65265;53.200;6.080;2023-03-22T22:59:37;7.43;;;3.60;;
76433;SDS011;65265;53.200;6.080;2023-03-22T23:04:30;4.82;;;2.63;;
76433;SDS011;65265;53.200;6.080;2023-03-22T23:09:22;4.85;;;1.08;;
76433;SDS011;65265;53.200;6.080;2023-03-22T23:14:16;3.58;;;0.95;;
76433;SDS011;65265;53.200;6.080;2023-03-22T23:24:04;3.70;;;0.60;;
76433;SDS011;65265;53.200;6.080;2023-03-22T23:28:59;2.63;;;0.80;;
76433;SDS011;65265;53.200;6.080;2023-03-22T23:33:52;4.45;;;0.57;;
76433;SDS011;65265;53.200;6.080;2023-03-22T23:38:46;5.38;;;1.63;;
76433;SDS011;65265;53.200;6.080;2023-03-22T23:43:40;4.93;;;2.55;;
76433;SDS011;65265;53.200;6.080;2023-03-22T23:48:33;15.02;;;6.30;;
76433;SDS011;65265;53.200;6.080;2023-03-22T23:53:25;10.85;;;7.22;;
76433;SDS011;65265;53.200;6.080;2023-03-22T23:58:19;19.48;;;10.32;;
